Time;durP1;ratioP1;P1;durP2;ratioP2;P2;SDS_P1;SDS_P2;PMS_P1;PMS_P2;Temp;Humidity;BMP_temperature;BMP_pressure;BME280_temperature;BME280_humidity;BME280_pressure;Samples;Min_cycle;Max_cycle;Signal;HPM_P1;HPM_P2
2022/04/29 00:00:34;;;;;;;1.52;0.88;;;20.60;47.20;;;;;;6300528;28;20034;-70
2022/04/29 00:03:35;;;;;;;1.30;0.80;;;20.60;46.70;;;;;;6300442;28;20032;-70
2022/04/29 00:06:35;;;;;;;1.42;0.80;;;20.60;46.80;;;;;;6300518;28;20066;-70
2022/04/29 00:09:36;;;;;;;1.35;0.77;;;20.60;46.80;;;;;;6300471;28;20505;-70
2022/04/29 00:12:38;;;;;;;0.80;0.65;;;20.60;47.10;;;;;;6318514;28;20161;-69
2022/04/29 00:15:39;;;;;;;1.20;0.80;;;20.60;47.10;;;;;;6318316;28;20049;-70
2022/04/29 00:18:40;;;;;;;1.40;0.90;;;20.60;47.20;;;;;;6300296;28;20016;-70
2022/04/29 00:21:41;;;;;;;0.95;0.70;;;20.60;47.20;;;;;;6300544;28;20074;-70
2022/04/29 00:24:41;;;;;;;1.17;0.70;;;20.60;47.30;;;;;;6318310;28;20034;-70
2022/04/29 00:27:42;;;;;;;1.00;0.70;;;20.50;47.20;;;;;;6300661;28;20020;-70
2022/04/29 00:30:44;;;;;;;0.80;0.77;;;20.50;47.10;;;;;;6317514;28;20462;-70
2022/04/29 00:33:44;;;;;;;0.95;0.82;;;20.50;47.10;;;;;;6318418;28;20028;-70
2022/04/29 00:36:45;;;;;;;0.90;0.77;;;20.50;47.20;;;;;;6318077;28;20020;-70
2022/04/29 00:39:45;;;;;;;1.00;0.60;;;20.50;47.30;;;;;;6300203;28;20066;-70
2022/04/29 00:42:47;;;;;;;0.88;0.60;;;20.50;47.90;;;;;;6299842;28;20040;-70
2022/04/29 00:45:47;;;;;;;0.80;0.60;;;20.50;47.20;;;;;;6299868;28;20069;-70
2022/04/29 00:48:48;;;;;;;0.52;0.50;;;20.50;47.20;;;;;;6299867;28;20073;-70
2022/04/29 00:51:51;;;;;;;0.82;0.60;;;20.50;47.40;;;;;;6318241;28;20024;-70
2022/04/29 00:54:57;;;;;;;1.65;1.00;;;20.50;47.40;;;;;;6317161;28;20027;-70
2022/04/29 00:58:18;;;;;;;1.85;0.93;;;20.50;48.00;;;;;;6318082;28;20036;-70
2022/04/29 01:01:21;;;;;;;0.77;0.73;;;20.50;47.40;;;;;;6317774;28;20111;-70
2022/04/29 01:04:26;;;;;;;1.00;0.80;;;20.50;47.40;;;;;;6299538;28;20028;-70
2022/04/29 01:07:28;;;;;;;1.00;0.60;;;20.50;47.40;;;;;;6318043;28;20126;-70
2022/04/29 01:10:29;;;;;;;0.80;0.70;;;20.50;47.40;;;;;;6299710;28;20036;-70
2022/04/29 01:13:30;;;;;;;0.77;0.60;;;20.50;47.50;;;;;;6317597;28;20028;-70
2022/04/29 01:16:32;;;;;;;1.33;0.70;;;20.50;47.50;;;;;;6317563;28;20031;-70
2022/04/29 01:19:32;;;;;;;1.45;0.80;;;20.50;47.50;;;;;;6317933;28;20102;-70
2022/04/29 01:22:33;;;;;;;1.02;0.60;;;20.50;47.50;;;;;;6299551;28;20028;-70
2022/04/29 01:25:35;;;;;;;0.90;0.77;;;20.50;47.50;;;;;;6317225;28;20023;-70
2022/04/29 01:28:37;;;;;;;1.75;0.70;;;20.40;47.50;;;;;;6299178;28;20832;-70
2022/04/29 01:31:39;;;;;;;1.17;0.80;;;20.40;47.50;;;;;;6317084;28;20490;-70
2022/04/29 01:34:40;;;;;;;0.70;0.63;;;20.40;47.50;;;;;;6299160;28;20027;-70
2022/04/29 01:37:42;;;;;;;0.80;0.73;;;20.50;47.60;;;;;;6317310;28;20439;-70
2022/04/29 01:40:42;;;;;;;0.65;0.55;;;20.40;47.50;;;;;;6299183;28;20127;-70
2022/04/29 01:43:43;;;;;;;1.20;0.90;;;20.40;47.70;;;;;;6317436;28;20034;-70
2022/04/29 01:46:44;;;;;;;1.95;0.95;;;20.40;47.70;;;;;;6299002;28;20032;-70
2022/04/29 01:49:44;;;;;;;1.00;0.82;;;20.40;47.70;;;;;;6299150;28;20055;-70
2022/04/29 01:52:45;;;;;;;1.45;0.90;;;20.40;47.60;;;;;;6317392;28;20100;-70
2022/04/29 01:55:46;;;;;;;1.30;0.80;;;20.40;47.80;;;;;;6298681;28;20047;-70
2022/04/29 01:58:47;;;;;;;1.20;0.65;;;20.40;47.80;;;;;;6317106;28;20378;-70
2022/04/29 02:01:48;;;;;;;2.17;0.90;;;20.40;47.70;;;;;;6317064;28;20285;-71
2022/04/29 02:04:48;;;;;;;0.85;0.75;;;20.40;47.80;;;;;;6298849;28;20028;-70
2022/04/29 02:07:49;;;;;;;2.22;1.00;;;20.40;47.80;;;;;;6320733;28;20051;-70
2022/04/29 02:10:50;;;;;;;1.27;0.90;;;20.40;47.80;;;;;;6321585;28;20039;-70
2022/04/29 02:13:52;;;;;;;1.10;0.75;;;20.40;47.80;;;;;;6321215;28;20047;-70
2022/04/29 02:16:53;;;;;;;0.70;0.60;;;20.40;47.80;;;;;;6321316;28;20475;-70
2022/04/29 02:19:53;;;;;;;1.13;0.88;;;20.40;47.90;;;;;;6321370;28;20055;-70
2022/04/29 02:22:54;;;;;;;0.80;0.68;;;20.40;47.90;;;;;;6321270;28;20040;-70
2022/04/29 02:25:57;;;;;;;1.23;1.00;;;20.40;47.90;;;;;;6320808;28;20092;-70
2022/04/29 02:28:58;;;;;;;0.90;0.70;;;20.40;47.90;;;;;;6302745;28;20028;-70
2022/04/29 02:31:59;;;;;;;0.90;0.68;;;20.30;47.90;;;;;;6295729;28;20082;-70
2022/04/29 02:35:00;;;;;;;1.42;0.90;;;20.40;47.90;;;;;;6295731;28;20025;-70
2022/04/29 02:38:01;;;;;;;1.17;0.98;;;20.40;48.00;;;;;;6295540;28;20131;-70
2022/04/29 02:41:01;;;;;;;1.20;0.70;;;20.40;48.00;;;;;;6295627;28;20056;-70
2022/04/29 02:44:03;;;;;;;0.65;0.65;;;20.40;48.00;;;;;;6284292;28;20146;-70
2022/04/29 02:47:09;;;;;;;1.38;0.70;;;20.40;48.70;;;;;;6321076;28;20040;-70
2022/04/29 02:50:10;;;;;;;0.80;0.75;;;20.40;48.00;;;;;;6302147;28;20024;-70
2022/04/29 02:53:10;;;;;;;1.45;0.80;;;20.30;47.90;;;;;;6321026;28;20052;-70
2022/04/29 02:56:11;;;;;;;0.68;0.65;;;20.30;47.90;;;;;;6320462;28;20024;-70
2022/04/29 02:59:12;;;;;;;1.33;0.90;;;20.30;47.90;;;;;;6320663;28;20020;-70
2022/04/29 03:02:12;;;;;;;1.20;0.63;;;20.30;48.00;;;;;;6320470;28;20033;-70
2022/04/29 03:05:13;;;;;;;1.35;0.88;;;20.30;47.90;;;;;;6320502;28;20058;-70
2022/04/29 03:08:13;;;;;;;1.00;0.70;;;20.30;47.90;;;;;;6319974;28;20028;-70
2022/04/29 03:11:14;;;;;;;0.95;0.65;;;20.30;48.00;;;;;;6320072;28;20085;-70
2022/04/29 03:14:14;;;;;;;1.40;1.00;;;20.30;48.00;;;;;;6320235;28;20454;-70
2022/04/29 03:20:36;;;;;;;0.93;0.68;;;20.30;48.00;;;;;;6320314;28;20454;-70
2022/04/29 03:23:37;;;;;;;1.02;0.73;;;20.30;47.90;;;;;;6301713;28;20036;-70
2022/04/29 03:26:38;;;;;;;1.88;0.80;;;20.30;48.00;;;;;;6319749;28;20032;-70
2022/04/29 03:29:38;;;;;;;1.20;0.80;;;20.30;47.90;;;;;;6300997;28;20020;-70
2022/04/29 03:32:39;;;;;;;2.63;0.93;;;20.30;47.90;;;;;;6319642;28;20409;-70
2022/04/29 03:35:44;;;;;;;1.90;0.98;;;20.30;48.00;;;;;;6301278;28;20077;-70
2022/04/29 03:38:45;;;;;;;1.52;0.85;;;20.30;47.90;;;;;;6319301;28;20040;-70
2022/04/29 03:41:45;;;;;;;1.83;0.80;;;20.30;48.00;;;;;;6319384;28;20432;-70
2022/04/29 03:44:46;;;;;;;0.98;0.82;;;20.30;48.00;;;;;;6319363;28;20516;-70
2022/04/29 03:47:47;;;;;;;0.98;0.80;;;20.30;48.00;;;;;;6319105;28;20024;-70
2022/04/29 03:50:48;;;;;;;0.85;0.70;;;20.30;48.00;;;;;;6319507;28;20056;-70
2022/04/29 03:53:49;;;;;;;3.47;0.80;;;20.30;47.90;;;;;;6319138;28;20091;-70
2022/04/29 03:56:51;;;;;;;1.00;0.70;;;20.30;48.00;;;;;;6318890;28;20116;-70
2022/04/29 03:59:51;;;;;;;1.38;0.82;;;20.30;48.00;;;;;;6318833;28;20020;-70
2022/04/29 04:02:52;;;;;;;0.95;0.60;;;20.30;48.00;;;;;;6300439;28;20098;-70
2022/04/29 04:09:12;;;;;;;1.85;0.80;;;20.30;48.00;;;;;;6318498;28;20654;-70
2022/04/29 04:12:13;;;;;;;1.33;0.82;;;20.30;48.00;;;;;;6300887;28;20031;-70
2022/04/29 04:15:14;;;;;;;0.82;0.75;;;20.30;47.90;;;;;;6300756;28;20039;-70
2022/04/29 04:18:15;;;;;;;1.35;0.90;;;20.30;47.90;;;;;;6318791;28;20024;-70
2022/04/29 04:21:15;;;;;;;1.58;0.93;;;20.30;48.00;;;;;;6318222;28;20081;-70
2022/04/29 04:24:16;;;;;;;0.90;0.70;;;20.30;47.90;;;;;;6300486;28;20077;-70
2022/04/29 04:27:17;;;;;;;0.77;0.68;;;20.30;48.00;;;;;;6300257;28;20038;-70
2022/04/29 04:30:17;;;;;;;1.35;1.02;;;20.30;48.00;;;;;;6299442;28;20036;-70
2022/04/29 04:33:18;;;;;;;0.93;0.60;;;20.30;48.00;;;;;;6318350;28;20043;-70
2022/04/29 04:36:19;;;;;;;0.80;0.65;;;20.30;47.90;;;;;;6317927;28;20035;-70
2022/04/29 04:39:21;;;;;;;1.00;0.80;;;20.30;47.90;;;;;;6291523;28;20065;-70
2022/04/29 04:42:22;;;;;;;0.88;0.60;;;20.30;47.90;;;;;;6291988;28;20037;-70
2022/04/29 04:45:23;;;;;;;1.25;0.80;;;20.30;47.90;;;;;;6291700;28;20024;-70
2022/04/29 04:48:23;;;;;;;1.27;0.85;;;20.30;47.80;;;;;;6291475;28;20020;-70
2022/04/29 04:51:24;;;;;;;0.90;0.70;;;20.30;47.90;;;;;;6293080;28;20033;-70
2022/04/29 04:54:25;;;;;;;1.40;0.90;;;20.30;47.80;;;;;;6293124;28;20042;-70
2022/04/29 04:57:26;;;;;;;1.73;0.90;;;20.30;47.80;;;;;;6291477;28;20032;-71
2022/04/29 05:00:39;;;;;;;1.83;0.93;;;20.30;47.80;;;;;;6292058;28;20032;-70
2022/04/29 05:03:40;;;;;;;0.80;0.68;;;20.30;47.80;;;;;;6268700;28;20025;-70
2022/04/29 05:06:40;;;;;;;0.82;0.70;;;20.30;47.80;;;;;;6268115;28;20032;-70
2022/04/29 05:09:41;;;;;;;1.55;1.02;;;20.30;47.80;;;;;;6283224;28;20455;-70
2022/04/29 05:12:44;;;;;;;1.67;0.80;;;20.30;47.80;;;;;;6283247;28;20029;-70
2022/04/29 05:15:45;;;;;;;0.90;0.73;;;20.30;47.80;;;;;;6267831;28;20108;-70
2022/04/29 05:18:45;;;;;;;1.35;0.93;;;20.30;47.70;;;;;;6276470;28;20024;-70
2022/04/29 05:21:46;;;;;;;1.13;0.88;;;20.30;47.70;;;;;;6292597;28;20112;-70
2022/04/29 05:24:48;;;;;;;1.33;0.88;;;20.30;47.70;;;;;;6292357;28;20389;-70
2022/04/29 05:27:48;;;;;;;1.50;0.85;;;20.30;47.70;;;;;;6292707;28;20032;-70
2022/04/29 05:30:49;;;;;;;1.35;0.90;;;20.30;47.60;;;;;;6268415;28;20032;-69
2022/04/29 05:33:50;;;;;;;1.13;0.80;;;20.30;47.60;;;;;;6240473;28;20030;-70
2022/04/29 05:36:51;;;;;;;4.72;1.48;;;20.30;47.60;;;;;;6241409;28;20026;-71
2022/04/29 05:43:12;;;;;;;2.35;1.52;;;20.30;46.90;;;;;;6271482;28;20139;-70
2022/04/29 05:46:12;;;;;;;9.20;2.28;;;20.20;45.90;;;;;;6270737;28;20028;-70
2022/04/29 05:49:13;;;;;;;13.05;3.08;;;20.20;45.20;;;;;;6253531;28;20029;-69
2022/04/29 05:52:14;;;;;;;11.57;2.80;;;20.20;44.90;;;;;;6272052;28;20036;-70
2022/04/29 05:55:15;;;;;;;8.70;2.72;;;20.20;44.50;;;;;;6271174;28;20538;-70
2022/04/29 05:58:16;;;;;;;13.20;2.90;;;20.20;44.00;;;;;;6271996;28;20031;-69
2022/04/29 06:01:16;;;;;;;13.88;2.97;;;20.20;43.70;;;;;;6274069;28;20029;-70
2022/04/29 06:04:17;;;;;;;11.30;2.28;;;20.30;44.20;;;;;;6274007;28;20526;-70
2022/04/29 06:07:17;;;;;;;9.38;2.47;;;20.30;44.60;;;;;;6273559;28;20021;-70
2022/04/29 06:10:19;;;;;;;8.05;2.80;;;20.30;44.80;;;;;;6256100;28;20071;-69
2022/04/29 06:13:20;;;;;;;9.13;2.67;;;20.30;44.90;;;;;;6273685;28;20023;-70
2022/04/29 06:16:21;;;;;;;6.82;2.35;;;20.30;45.10;;;;;;6272368;28;20021;-69
2022/04/29 06:19:22;;;;;;;7.60;2.25;;;20.30;45.30;;;;;;6273566;28;20087;-71
2022/04/29 06:22:22;;;;;;;6.60;2.80;;;20.30;45.40;;;;;;6255711;28;20021;-70
2022/04/29 06:25:24;;;;;;;6.40;2.30;;;20.30;45.50;;;;;;6273616;28;20032;-69
2022/04/29 06:28:24;;;;;;;6.45;2.05;;;20.30;45.50;;;;;;6273050;28;20025;-70
2022/04/29 06:31:25;;;;;;;7.13;2.20;;;20.30;45.70;;;;;;6255317;28;20064;-70
2022/04/29 06:34:26;;;;;;;3.78;1.92;;;20.30;45.70;;;;;;6273396;28;20039;-70
2022/04/29 06:37:26;;;;;;;4.05;1.80;;;20.30;45.80;;;;;;6242923;28;20032;-70
2022/04/29 06:40:28;;;;;;;6.53;1.90;;;20.30;45.80;;;;;;6248359;28;20507;-69
2022/04/29 06:43:30;;;;;;;9.00;2.20;;;20.30;45.90;;;;;;6235055;28;20027;-70
2022/04/29 06:46:30;;;;;;;3.33;1.80;;;20.30;45.90;;;;;;6254906;28;20491;-70
2022/04/29 06:49:31;;;;;;;3.92;2.17;;;20.30;46.00;;;;;;6255056;28;20032;-69
2022/04/29 06:52:33;;;;;;;4.00;2.08;;;20.30;46.10;;;;;;6271958;28;20061;-70
2022/04/29 06:55:38;;;;;;;5.40;1.60;;;20.30;46.10;;;;;;6271394;28;20025;-70
2022/04/29 06:58:39;;;;;;;;;;;20.30;46.20;;;;;;6272776;28;20013;-70
2022/04/29 07:01:39;;;;;;;5.68;1.88;;;20.30;46.30;;;;;;6272731;28;19940;-70
2022/04/29 07:04:40;;;;;;;2.88;1.40;;;20.30;46.30;;;;;;6272580;28;20219;-70
2022/04/29 07:07:41;;;;;;;3.25;1.58;;;20.30;46.30;;;;;;6271614;28;20387;-70
2022/04/29 07:10:41;;;;;;;3.78;1.23;;;20.30;46.40;;;;;;6272236;28;20067;-70
2022/04/29 07:13:43;;;;;;;3.25;1.48;;;20.30;46.40;;;;;;6254319;28;20033;-70
2022/04/29 07:16:44;;;;;;;6.57;2.20;;;20.30;46.50;;;;;;6254337;28;20044;-70
2022/04/29 07:19:45;;;;;;;2.47;1.52;;;20.30;46.50;;;;;;6272129;28;20079;-70
2022/04/29 07:22:46;;;;;;;4.40;1.73;;;20.30;46.50;;;;;;6253958;28;20029;-70
2022/04/29 07:25:46;;;;;;;2.30;1.45;;;20.30;47.30;;;;;;6270892;28;20112;-70
2022/04/29 07:28:47;;;;;;;3.47;1.75;;;20.30;46.60;;;;;;6270041;28;20024;-70
2022/04/29 07:31:48;;;;;;;2.15;1.40;;;20.30;46.70;;;;;;6267205;28;20166;-70
2022/04/29 07:41:45;;;;;;;3.35;1.50;;;20.30;46.70;;;;;;6222261;28;20051;-69
2022/04/29 07:44:46;;;;;;;1.75;1.35;;;20.40;46.80;;;;;;6222885;28;20105;-69
2022/04/29 07:47:47;;;;;;;2.42;1.15;;;20.40;46.80;;;;;;6220993;28;20032;-69
2022/04/29 07:50:48;;;;;;;2.88;1.27;;;20.40;46.80;;;;;;6220676;28;20022;-69
2022/04/29 07:53:49;;;;;;;3.28;1.45;;;20.40;46.90;;;;;;6220911;28;20022;-69
2022/04/29 07:56:49;;;;;;;3.55;1.23;;;20.40;46.90;;;;;;6221887;28;20029;-69
2022/04/29 07:59:50;;;;;;;3.30;1.55;;;20.40;46.90;;;;;;6221915;28;20046;-70
2022/04/29 08:02:51;;;;;;;2.60;1.42;;;20.40;46.90;;;;;;6220575;28;20030;-69
2022/04/29 08:05:52;;;;;;;3.53;1.67;;;20.40;46.80;;;;;;6221636;28;20485;-70
2022/04/29 08:08:53;;;;;;;3.08;1.27;;;20.40;46.90;;;;;;6220675;28;20033;-70
2022/04/29 08:11:53;;;;;;;2.15;1.50;;;20.40;46.90;;;;;;6221846;28;20026;-70
2022/04/29 08:14:55;;;;;;;4.88;1.30;;;20.40;46.90;;;;;;6221556;28;20026;-70
2022/04/29 08:17:57;;;;;;;2.40;1.23;;;20.40;46.90;;;;;;6221441;28;20105;-71
2022/04/29 08:20:58;;;;;;;2.83;1.20;;;20.40;46.90;;;;;;6221325;28;20080;-69
2022/04/29 08:23:59;;;;;;;1.95;1.25;;;20.40;46.90;;;;;;6221385;28;20097;-69
2022/04/29 08:27:00;;;;;;;2.90;1.17;;;20.40;47.00;;;;;;6220613;28;20022;-70
2022/04/29 08:30:01;;;;;;;4.15;1.45;;;20.40;47.00;;;;;;6221323;28;20532;-75
2022/04/29 08:33:02;;;;;;;2.22;1.20;;;20.40;47.00;;;;;;6219215;28;20030;-72
2022/04/29 08:36:03;;;;;;;3.30;1.50;;;20.40;47.10;;;;;;6219603;28;20373;-69
2022/04/29 08:39:03;;;;;;;4.75;1.63;;;20.40;46.90;;;;;;6226692;28;20046;-70
2022/04/29 08:42:06;;;;;;;4.75;1.70;;;20.40;46.50;;;;;;6227797;28;20053;-70
2022/04/29 08:45:15;;;;;;;1.95;1.00;;;20.40;46.40;;;;;;6246263;28;20132;-70
2022/04/29 08:48:18;;;;;;;3.70;1.45;;;20.40;46.70;;;;;;6227585;28;20056;-70
2022/04/29 08:51:19;;;;;;;3.72;1.27;;;20.40;46.80;;;;;;6233298;28;20061;-70
2022/04/29 09:01:01;;;;;;;3.97;1.30;;;20.40;47.00;;;;;;6269965;28;20112;-73
2022/04/29 09:04:02;;;;;;;3.20;1.20;;;20.40;47.00;;;;;;6251798;28;20434;-72
2022/04/29 09:07:03;;;;;;;4.60;1.10;;;20.40;47.20;;;;;;6269207;28;20116;-71
2022/04/29 09:10:04;;;;;;;1.98;1.10;;;20.40;47.00;;;;;;6279384;28;20060;-71
2022/04/29 09:13:13;;;;;;;5.00;1.83;;;20.40;46.40;;;;;;6283579;28;20028;-71
2022/04/29 09:16:14;;;;;;;5.95;1.73;;;20.40;45.70;;;;;;6295347;28;20012;-70
2022/04/29 09:19:32;;;;;;;3.83;1.77;;;20.40;44.80;;;;;;6299691;28;20044;-70
2022/04/29 09:22:33;;;;;;;4.07;1.70;;;20.40;44.30;;;;;;6257848;28;20032;-69
2022/04/29 09:25:39;;;;;;;5.05;1.63;;;20.40;44.10;;;;;;6278729;28;20387;-70
2022/04/29 09:28:39;;;;;;;7.53;2.10;;;20.40;43.80;;;;;;6273650;28;20040;-71
2022/04/29 09:31:58;;;;;;;4.40;1.88;;;20.40;43.80;;;;;;6287012;28;20112;-71
2022/04/29 09:34:59;;;;;;;3.88;1.42;;;20.40;43.90;;;;;;6273812;28;20462;-71
2022/04/29 09:41:24;;;;;;;4.00;1.70;;;20.50;45.10;;;;;;6272885;28;20077;-70
2022/04/29 09:44:30;;;;;;;4.30;1.67;;;20.40;44.60;;;;;;6254602;28;20070;-73
2022/04/29 09:47:32;;;;;;;6.22;1.90;;;20.50;44.10;;;;;;6273097;28;20033;-72
2022/04/29 09:50:46;;;;;;;6.80;1.50;;;20.40;44.20;;;;;;6272756;28;20794;-71
2022/04/29 09:53:49;;;;;;;4.53;1.90;;;20.50;44.10;;;;;;6274298;28;20036;-71
2022/04/29 09:57:16;;;;;;;5.00;2.03;;;20.50;44.00;;;;;;6273283;28;20514;-72
2022/04/29 10:00:17;;;;;;;8.27;2.30;;;20.40;43.40;;;;;;6249457;28;20441;-72
2022/04/29 10:03:18;;;;;;;7.80;2.33;;;20.50;43.50;;;;;;6248954;28;20022;-71
2022/04/29 10:06:21;;;;;;;6.25;2.15;;;20.40;43.50;;;;;;6249619;28;20041;-72
2022/04/29 10:09:29;;;;;;;6.68;2.30;;;20.50;43.30;;;;;;6252470;28;20025;-71
2022/04/29 10:12:31;;;;;;;6.07;2.40;;;20.50;43.30;;;;;;6256595;28;20483;-71
2022/04/29 10:15:34;;;;;;;8.48;2.30;;;20.50;43.90;;;;;;6274513;28;20048;-72
2022/04/29 10:22:03;;;;;;;5.57;2.28;;;20.40;42.90;;;;;;6272924;28;20029;-72
2022/04/29 10:25:08;;;;;;;13.68;2.40;;;20.40;42.80;;;;;;6272291;28;20021;-71
2022/04/29 10:28:10;;;;;;;11.00;3.05;;;20.50;43.60;;;;;;6252983;28;20036;-71
2022/04/29 10:31:20;;;;;;;13.38;2.85;;;20.50;43.60;;;;;;6254003;28;20028;-71
2022/04/29 10:34:28;;;;;;;15.90;2.60;;;20.50;43.60;;;;;;6272405;28;20021;-71
2022/04/29 10:37:32;;;;;;;10.70;2.85;;;20.50;43.10;;;;;;6271833;28;20479;-71
2022/04/29 10:40:34;;;;;;;7.93;2.10;;;20.50;42.40;;;;;;6272030;28;20045;-71
2022/04/29 10:43:44;;;;;;;10.70;2.70;;;20.50;42.30;;;;;;6254322;28;20028;-71
2022/04/29 10:46:45;;;;;;;7.82;2.20;;;20.40;42.30;;;;;;6272462;28;20044;-73
2022/04/29 10:49:46;;;;;;;7.63;2.10;;;20.50;42.50;;;;;;6254578;28;20029;-71
2022/04/29 10:52:59;;;;;;;6.95;2.33;;;20.50;42.70;;;;;;6272010;28;20028;-72
2022/04/29 10:56:28;;;;;;;15.35;2.42;;;20.50;42.40;;;;;;6245641;28;20108;-72
2022/04/29 10:59:50;;;;;;;11.95;2.40;;;20.50;41.90;;;;;;6246407;28;20487;-70
2022/04/29 11:02:51;;;;;;;6.00;1.70;;;20.50;41.70;;;;;;6247362;28;20021;-70
2022/04/29 11:06:06;;;;;;;12.65;2.28;;;20.50;41.20;;;;;;6271665;28;20025;-71
2022/04/29 11:09:30;;;;;;;9.63;2.65;;;20.50;41.50;;;;;;6253193;28;20036;-71
2022/04/29 11:12:37;;;;;;;6.22;2.17;;;20.40;41.40;;;;;;6278674;28;20075;-71
2022/04/29 11:15:44;;;;;;;6.60;1.77;;;20.50;41.70;;;;;;6295198;28;20020;-70
2022/04/29 11:18:45;;;;;;;6.53;2.10;;;20.50;41.40;;;;;;6295060;28;20036;-71
2022/04/29 11:25:26;;;;;;;10.23;2.65;;;20.50;41.70;;;;;;6251591;28;20415;-70
2022/04/29 11:28:27;;;;;;;11.18;2.58;;;20.50;41.90;;;;;;6246641;28;20033;-70
2022/04/29 11:31:35;;;;;;;9.45;2.35;;;20.50;41.90;;;;;;6253080;28;20021;-70
2022/04/29 11:34:49;;;;;;;9.15;2.28;;;20.50;41.90;;;;;;6270411;28;20620;-70
2022/04/29 11:37:50;;;;;;;9.85;2.15;;;20.50;41.90;;;;;;6271123;28;20025;-71
2022/04/29 11:40:52;;;;;;;11.63;2.92;;;20.50;41.90;;;;;;6270000;28;20076;-70
2022/04/29 11:43:53;;;;;;;23.33;3.05;;;20.50;41.80;;;;;;6252607;28;20035;-70
2022/04/29 11:46:53;;;;;;;10.43;2.35;;;20.50;41.50;;;;;;6268796;28;20301;-70
2022/04/29 11:49:54;;;;;;;14.50;2.83;;;20.40;41.70;;;;;;6269989;28;20147;-71
2022/04/29 11:53:03;;;;;;;12.90;2.65;;;20.40;41.40;;;;;;6267716;28;20154;-71
2022/04/29 11:56:04;;;;;;;10.65;2.47;;;20.40;41.80;;;;;;6269520;28;20024;-71
2022/04/29 11:59:06;;;;;;;18.98;2.85;;;20.40;41.90;;;;;;6257043;28;20486;-70
2022/04/29 12:02:11;;;;;;;8.95;2.00;;;20.40;42.00;;;;;;6269318;28;20040;-70
2022/04/29 12:05:11;;;;;;;15.27;3.03;;;20.40;42.60;;;;;;6269226;28;20032;-71
2022/04/29 12:08:12;;;;;;;7.82;1.83;;;20.40;42.90;;;;;;6251396;28;20076;-71
2022/04/29 12:11:25;;;;;;;8.88;2.00;;;20.40;43.20;;;;;;6232987;28;20029;-71
2022/04/29 12:14:26;;;;;;;10.30;2.00;;;20.40;43.20;;;;;;6244691;28;20029;-70
2022/04/29 12:17:36;;;;;;;6.00;1.80;;;20.40;43.80;;;;;;6244942;28;20540;-70
2022/04/29 12:20:38;;;;;;;8.82;1.67;;;20.40;43.90;;;;;;6244527;28;20025;-71
2022/04/29 12:23:38;;;;;;;6.85;1.92;;;20.40;43.90;;;;;;6226568;28;20186;-71
2022/04/29 12:26:39;;;;;;;8.02;1.70;;;20.40;44.20;;;;;;6255500;28;20025;-71
2022/04/29 12:29:40;;;;;;;4.25;1.60;;;20.40;44.10;;;;;;6268036;28;20392;-70
2022/04/29 12:36:14;;;;;;;7.75;1.60;;;20.40;44.20;;;;;;6258204;28;20024;-70
2022/04/29 12:39:25;;;;;;;7.22;1.67;;;20.40;44.30;;;;;;6267268;28;20045;-70
2022/04/29 12:42:28;;;;;;;5.00;1.60;;;20.40;44.30;;;;;;6268099;28;20079;-71
2022/04/29 12:45:29;;;;;;;5.70;1.20;;;20.40;44.40;;;;;;6267884;28;20068;-71
2022/04/29 12:48:32;;;;;;;3.55;1.50;;;20.40;44.40;;;;;;6268408;28;20021;-70
2022/04/29 12:51:36;;;;;;;5.35;1.60;;;20.40;44.70;;;;;;6267302;28;20561;-69
2022/04/29 12:54:37;;;;;;;2.70;1.20;;;20.40;44.70;;;;;;6268527;28;20033;-70
2022/04/29 12:57:37;;;;;;;5.18;1.63;;;20.40;44.70;;;;;;6268410;28;20035;-70
2022/04/29 13:00:44;;;;;;;6.82;1.30;;;20.40;44.70;;;;;;6268084;28;20440;-71
2022/04/29 13:03:55;;;;;;;3.67;1.48;;;20.40;44.50;;;;;;6268407;28;20617;-70
2022/04/29 13:06:56;;;;;;;4.05;1.23;;;20.40;44.50;;;;;;6268795;28;20029;-71
2022/04/29 13:09:57;;;;;;;6.15;1.42;;;20.40;44.60;;;;;;6267722;28;20029;-71
2022/04/29 13:12:57;;;;;;;4.05;1.20;;;20.40;44.50;;;;;;6268047;28;20037;-71
2022/04/29 13:15:58;;;;;;;3.33;1.42;;;20.40;44.60;;;;;;6243777;28;20096;-71
2022/04/29 13:18:58;;;;;;;3.42;1.58;;;20.40;44.60;;;;;;6250125;28;20029;-71
2022/04/29 13:21:59;;;;;;;3.75;1.55;;;20.40;44.50;;;;;;6267901;28;20032;-71
2022/04/29 13:25:00;;;;;;;3.65;1.50;;;20.40;44.40;;;;;;6258610;28;20170;-71
2022/04/29 13:28:01;;;;;;;5.95;1.55;;;20.40;44.60;;;;;;6268321;28;20036;-71
2022/04/29 13:31:03;;;;;;;5.32;1.50;;;20.40;44.60;;;;;;6251271;28;20021;-72
2022/04/29 13:34:05;;;;;;;2.75;1.20;;;20.40;44.70;;;;;;6225728;28;20025;-71
2022/04/29 13:37:06;;;;;;;4.95;1.42;;;20.40;44.30;;;;;;6252853;28;20163;-71
2022/04/29 13:40:08;;;;;;;2.63;1.20;;;20.40;44.30;;;;;;6267433;28;20053;-71
2022/04/29 13:43:09;;;;;;;4.65;1.20;;;20.40;44.30;;;;;;6267706;28;20074;-72
2022/04/29 13:46:12;;;;;;;2.22;1.30;;;20.40;44.30;;;;;;6267697;28;20502;-72
2022/04/29 13:49:13;;;;;;;2.97;1.08;;;20.40;44.30;;;;;;6250296;28;20025;-72
2022/04/29 13:55:32;;;;;;;3.58;1.52;;;20.40;44.00;;;;;;6267662;28;20025;-72
2022/04/29 13:58:33;;;;;;;2.38;1.00;;;20.40;43.80;;;;;;6240974;28;20075;-72
2022/04/29 14:01:33;;;;;;;3.50;1.58;;;20.40;43.80;;;;;;6226949;28;20036;-72
2022/04/29 14:04:34;;;;;;;3.95;1.27;;;20.40;43.90;;;;;;6242489;28;20120;-73
2022/04/29 14:07:36;;;;;;;2.05;1.10;;;20.40;44.00;;;;;;6270002;28;20039;-73
2022/04/29 14:10:37;;;;;;;3.25;1.50;;;20.40;44.10;;;;;;6273869;28;20447;-72
2022/04/29 14:13:38;;;;;;;4.28;1.27;;;20.40;44.20;;;;;;6271303;28;20103;-73
2022/04/29 14:16:38;;;;;;;4.25;1.38;;;20.40;44.40;;;;;;6271597;28;20501;-73
2022/04/29 14:19:39;;;;;;;3.20;1.30;;;20.40;44.50;;;;;;6253451;28;20021;-73
2022/04/29 14:22:42;;;;;;;3.95;1.40;;;20.40;44.50;;;;;;6271028;28;20083;-73
2022/04/29 14:25:43;;;;;;;4.10;1.10;;;20.40;44.80;;;;;;6257359;28;20100;-72
2022/04/29 14:28:43;;;;;;;2.10;0.95;;;20.40;44.70;;;;;;6246424;28;20025;-73
2022/04/29 14:31:44;;;;;;;1.90;1.20;;;20.40;44.90;;;;;;6269574;28;20029;-73
2022/04/29 14:34:45;;;;;;;3.22;1.17;;;20.40;44.90;;;;;;6271269;28;20025;-73
2022/04/29 14:37:49;;;;;;;2.42;1.10;;;20.40;45.00;;;;;;6253257;28;20035;-73
2022/04/29 14:40:51;;;;;;;1.83;0.98;;;20.40;45.10;;;;;;6270647;28;20080;-73
2022/04/29 14:43:52;;;;;;;1.88;1.00;;;20.40;45.10;;;;;;6271311;28;20426;-74
2022/04/29 14:46:53;;;;;;;3.50;0.90;;;20.40;45.10;;;;;;6253183;28;20398;-73
2022/04/29 14:49:54;;;;;;;2.15;1.02;;;20.40;45.20;;;;;;6252885;28;20047;-74
2022/04/29 14:52:55;;;;;;;3.10;1.00;;;20.40;45.30;;;;;;6270578;28;20036;-74
2022/04/29 14:55:55;;;;;;;3.55;1.17;;;20.40;45.30;;;;;;6271209;28;20037;-74
2022/04/29 14:58:56;;;;;;;3.25;0.93;;;20.40;45.30;;;;;;6244580;28;20031;-73
2022/04/29 15:01:57;;;;;;;4.82;1.02;;;20.40;45.30;;;;;;6246838;28;20117;-74
2022/04/29 15:04:57;;;;;;;3.45;1.00;;;20.40;45.40;;;;;;6244280;28;20087;-73
2022/04/29 15:07:58;;;;;;;1.38;0.90;;;20.40;45.50;;;;;;6244590;28;20033;-73
2022/04/29 15:17:38;;;;;;;3.05;0.82;;;20.40;45.60;;;;;;6270576;28;20777;-73
2022/04/29 15:20:39;;;;;;;3.83;0.80;;;20.40;45.60;;;;;;6268574;28;20171;-72
2022/04/29 15:23:40;;;;;;;1.95;0.93;;;20.40;45.60;;;;;;6253070;28;20022;-73
2022/04/29 15:26:41;;;;;;;2.65;0.90;;;20.40;45.70;;;;;;6251487;28;20065;-73
2022/04/29 15:29:44;;;;;;;1.40;1.05;;;20.40;45.70;;;;;;6245807;28;20026;-73
2022/04/29 15:32:45;;;;;;;6.32;1.30;;;20.40;45.80;;;;;;6227564;28;20036;-73
2022/04/29 15:35:47;;;;;;;2.22;0.90;;;20.40;45.80;;;;;;6261501;28;20017;-73
2022/04/29 15:38:48;;;;;;;1.20;0.80;;;20.40;45.80;;;;;;6251419;28;20029;-73
2022/04/29 15:41:49;;;;;;;6.15;1.10;;;20.40;45.80;;;;;;6251731;28;20028;-72
2022/04/29 15:44:49;;;;;;;1.63;0.93;;;20.40;45.80;;;;;;6269397;28;20028;-73
2022/04/29 15:47:50;;;;;;;2.08;0.88;;;20.40;45.80;;;;;;6269720;28;20064;-73
2022/04/29 15:50:51;;;;;;;1.50;1.00;;;20.40;45.90;;;;;;6269075;28;20055;-73
2022/04/29 15:53:52;;;;;;;3.92;1.13;;;20.40;45.90;;;;;;6251351;28;20059;-73
2022/04/29 15:56:53;;;;;;;3.42;1.35;;;20.40;45.90;;;;;;6251028;28;20021;-73
2022/04/29 15:59:54;;;;;;;1.85;1.10;;;20.40;46.00;;;;;;6250483;28;20034;-73
2022/04/29 16:02:55;;;;;;;4.47;1.55;;;20.40;46.00;;;;;;6250738;28;20058;-74
2022/04/29 16:05:56;;;;;;;3.95;1.88;;;20.40;46.00;;;;;;6267653;28;20112;-74
2022/04/29 16:08:58;;;;;;;5.70;2.30;;;20.40;46.00;;;;;;6267566;28;20036;-73
2022/04/29 16:11:59;;;;;;;6.60;2.55;;;20.40;46.10;;;;;;6225006;28;20084;-73
2022/04/29 16:15:00;;;;;;;7.75;2.33;;;20.40;46.00;;;;;;6260003;28;20032;-72
2022/04/29 16:21:20;;;;;;;13.43;3.55;;;20.40;46.10;;;;;;6268475;28;20032;-72
2022/04/29 16:27:40;;;;;;;11.38;3.75;;;20.40;46.10;;;;;;6267894;28;20044;-73
2022/04/29 16:30:44;;;;;;;11.82;4.45;;;20.40;46.20;;;;;;6252981;28;20035;-73
2022/04/29 16:33:46;;;;;;;13.00;4.40;;;20.40;46.20;;;;;;6222733;28;20131;-73
2022/04/29 16:36:47;;;;;;;14.35;4.78;;;20.40;46.30;;;;;;6230123;28;20680;-72
2022/04/29 16:39:47;;;;;;;13.07;4.60;;;20.40;46.30;;;;;;6247032;28;20069;-73